Time;durP1;ratioP1;P1;durP2;ratioP2;P2;SDS_P1;SDS_P2;PMS_P1;PMS_P2;Temp;Humidity;BMP_temperature;BMP_pressure;BME280_temperature;BME280_humidity;BME280_pressure;Samples;Min_cycle;Max_cycle;Signal;HPM_P1;HPM_P2
2023/05/19 00:00:18;;;;;;;6.07;4.05;;;16.70;60.70;;;;;;5035601;28;20350;-68
2023/05/19 00:02:44;;;;;;;8.57;4.28;;;16.60;60.80;;;;;;5035947;28;20151;-69
2023/05/19 00:05:13;;;;;;;8.40;4.72;;;16.60;60.90;;;;;;5035772;28;20026;-70
2023/05/19 00:07:42;;;;;;;7.80;4.07;;;16.60;60.80;;;;;;5035804;28;20326;-70
2023/05/19 00:10:09;;;;;;;7.25;3.78;;;16.60;60.70;;;;;;5034683;28;20028;-69
2023/05/19 00:12:36;;;;;;;8.20;4.35;;;16.60;60.60;;;;;;5035483;28;20029;-69
2023/05/19 00:15:02;;;;;;;7.55;4.50;;;16.60;60.40;;;;;;5035414;28;20040;-68
2023/05/19 00:17:28;;;;;;;6.97;3.80;;;16.60;60.30;;;;;;5035467;28;20351;-70
2023/05/19 00:19:54;;;;;;;7.63;4.22;;;16.60;60.40;;;;;;5035565;28;20036;-69
2023/05/19 00:22:20;;;;;;;6.68;4.10;;;16.50;60.60;;;;;;5035396;28;20041;-69
2023/05/19 00:24:46;;;;;;;9.00;4.28;;;16.50;60.50;;;;;;5035050;28;20469;-69
2023/05/19 00:27:12;;;;;;;7.70;4.00;;;16.50;60.60;;;;;;5035303;28;20082;-69
2023/05/19 00:29:37;;;;;;;7.40;4.35;;;16.50;60.70;;;;;;5035291;28;20026;-69
2023/05/19 00:32:04;;;;;;;8.93;3.78;;;16.40;60.90;;;;;;5035478;28;20034;-68
2023/05/19 00:34:30;;;;;;;8.57;4.30;;;16.40;60.90;;;;;;5035339;28;20029;-69
2023/05/19 00:36:56;;;;;;;11.07;4.40;;;16.40;61.00;;;;;;5035403;28;20375;-68
2023/05/19 00:39:21;;;;;;;9.00;4.43;;;16.40;61.30;;;;;;5035134;28;20115;-69
2023/05/19 00:41:47;;;;;;;8.85;4.88;;;16.40;61.30;;;;;;5035374;28;20343;-68
2023/05/19 00:44:13;;;;;;;7.70;4.55;;;16.40;61.30;;;;;;5035541;28;20028;-69
2023/05/19 00:46:40;;;;;;;9.43;4.50;;;16.40;61.50;;;;;;5035086;28;20036;-69
2023/05/19 00:49:06;;;;;;;6.60;3.85;;;16.30;61.40;;;;;;5035351;28;20033;-69
2023/05/19 00:51:32;;;;;;;8.15;4.20;;;16.30;61.60;;;;;;5035334;28;20030;-69
2023/05/19 00:53:57;;;;;;;9.23;4.18;;;16.30;61.50;;;;;;5035257;28;20026;-69
2023/05/19 00:56:23;;;;;;;9.57;4.45;;;16.20;61.70;;;;;;5035515;28;20430;-69
2023/05/19 00:58:53;;;;;;;8.10;4.50;;;16.30;61.70;;;;;;5034905;28;20405;-68
2023/05/19 01:01:20;;;;;;;7.35;4.20;;;16.20;62.00;;;;;;5035226;28;20022;-69
2023/05/19 01:03:47;;;;;;;7.68;4.60;;;16.20;61.90;;;;;;5034809;28;20108;-69
2023/05/19 01:06:13;;;;;;;7.75;4.38;;;16.20;61.90;;;;;;5035219;28;20022;-68
2023/05/19 01:08:40;;;;;;;9.25;4.43;;;16.20;62.00;;;;;;5034865;28;20354;-68
2023/05/19 01:11:06;;;;;;;6.47;4.38;;;16.10;62.30;;;;;;5035164;28;20082;-69
2023/05/19 01:13:33;;;;;;;6.95;4.30;;;16.10;62.60;;;;;;5033882;28;20014;-68
2023/05/19 01:16:15;;;;;;;7.18;4.30;;;16.10;62.60;;;;;;5034767;28;20069;-69
2023/05/19 01:18:57;;;;;;;7.47;4.18;;;16.10;62.50;;;;;;5036627;28;20029;-69
2023/05/19 01:21:59;;;;;;;8.68;4.60;;;16.10;62.50;;;;;;5039227;28;20512;-68
2023/05/19 01:24:34;;;;;;;6.90;3.67;;;16.10;62.70;;;;;;4977749;28;20435;-69
2023/05/19 01:27:12;;;;;;;7.70;3.90;;;16.00;62.70;;;;;;4978829;28;20062;-69
2023/05/19 01:29:49;;;;;;;5.57;3.80;;;16.00;62.90;;;;;;4978438;28;20061;-69
2023/05/19 01:32:18;;;;;;;8.48;4.50;;;15.90;62.90;;;;;;4978533;28;20027;-69
2023/05/19 01:34:47;;;;;;;6.97;4.10;;;15.90;62.90;;;;;;4978088;28;20026;-69
2023/05/19 01:37:15;;;;;;;8.02;3.90;;;15.90;63.20;;;;;;4977926;28;20031;-68
2023/05/19 01:39:43;;;;;;;9.27;4.80;;;15.90;63.20;;;;;;4978513;28;20034;-69
2023/05/19 01:42:10;;;;;;;7.20;4.25;;;15.90;63.70;;;;;;4980172;28;20043;-69
2023/05/19 01:44:36;;;;;;;9.75;5.50;;;15.90;63.90;;;;;;4978395;28;20115;-69
2023/05/19 01:47:03;;;;;;;9.07;4.25;;;15.80;63.90;;;;;;4978180;28;20455;-69
2023/05/19 01:49:29;;;;;;;7.85;4.40;;;15.80;63.80;;;;;;4977628;28;20039;-69
2023/05/19 01:51:55;;;;;;;6.50;3.80;;;15.80;64.20;;;;;;4977646;28;20498;-69
2023/05/19 01:54:21;;;;;;;8.27;4.28;;;15.70;64.30;;;;;;4978050;28;20054;-69
2023/05/19 01:57:06;;;;;;;6.75;3.80;;;15.80;64.50;;;;;;4978030;28;20047;-69
2023/05/19 01:59:49;;;;;;;7.50;4.20;;;15.80;64.70;;;;;;4977993;28;20045;-69
2023/05/19 02:02:22;;;;;;;5.65;3.53;;;15.70;64.70;;;;;;5011183;28;20022;-68
2023/05/19 02:04:58;;;;;;;9.10;4.68;;;15.70;64.70;;;;;;5018180;28;20026;-70
2023/05/19 02:07:43;;;;;;;8.40;4.30;;;15.70;64.80;;;;;;5018342;28;20048;-69
2023/05/19 02:10:23;;;;;;;7.85;4.53;;;15.70;64.90;;;;;;5018323;28;20083;-69
2023/05/19 02:12:52;;;;;;;9.40;5.55;;;15.70;65.20;;;;;;5017988;28;20152;-69
2023/05/19 02:15:25;;;;;;;11.70;5.70;;;15.70;65.50;;;;;;5017908;28;20152;-69
2023/05/19 02:17:54;;;;;;;8.30;4.85;;;15.70;65.40;;;;;;5017879;28;20026;-69
2023/05/19 02:20:23;;;;;;;10.70;5.25;;;15.60;65.70;;;;;;5017734;28;20100;-69
2023/05/19 02:22:49;;;;;;;9.35;5.10;;;15.60;65.70;;;;;;5017806;28;20018;-70
2023/05/19 02:25:15;;;;;;;9.15;5.40;;;15.60;66.00;;;;;;5030245;28;20056;-70
2023/05/19 02:27:41;;;;;;;10.60;5.25;;;15.60;66.00;;;;;;5037737;28;20046;-69
2023/05/19 02:30:08;;;;;;;6.65;4.35;;;15.60;65.90;;;;;;5037330;28;20044;-69
2023/05/19 02:32:35;;;;;;;9.07;4.68;;;15.60;65.40;;;;;;5037282;28;20017;-69
2023/05/19 02:35:02;;;;;;;10.00;4.50;;;15.60;65.50;;;;;;5037238;28;20104;-69
2023/05/19 02:37:28;;;;;;;8.48;4.30;;;15.60;66.00;;;;;;5037571;28;20029;-69
2023/05/19 02:39:54;;;;;;;8.77;4.85;;;15.60;65.60;;;;;;5036217;28;20393;-69
2023/05/19 02:42:20;;;;;;;12.85;5.20;;;15.60;66.20;;;;;;5037460;28;20036;-69
2023/05/19 02:44:47;;;;;;;7.85;4.35;;;15.60;65.80;;;;;;5037392;28;20029;-69
2023/05/19 02:47:13;;;;;;;8.73;4.57;;;15.50;66.30;;;;;;5037161;28;20029;-69
2023/05/19 02:49:41;;;;;;;8.10;4.25;;;15.50;66.10;;;;;;5037077;28;20504;-69
2023/05/19 02:52:07;;;;;;;7.47;4.10;;;15.50;66.10;;;;;;5037317;28;20198;-69
2023/05/19 02:54:33;;;;;;;6.28;4.25;;;15.50;65.90;;;;;;5037495;28;20057;-69
2023/05/19 02:57:00;;;;;;;8.57;4.40;;;15.50;65.70;;;;;;5037224;28;20040;-68
2023/05/19 02:59:26;;;;;;;9.15;4.35;;;15.50;65.80;;;;;;5036816;28;20454;-69
2023/05/19 03:01:56;;;;;;;8.15;4.35;;;15.60;65.60;;;;;;5037099;28;20036;-69
2023/05/19 03:04:22;;;;;;;7.10;4.35;;;15.60;65.50;;;;;;5036728;28;20049;-69
2023/05/19 03:06:47;;;;;;;7.28;4.63;;;15.60;65.50;;;;;;5037256;28;20115;-69
2023/05/19 03:09:14;;;;;;;8.20;4.78;;;15.60;65.60;;;;;;5036669;28;20017;-69
2023/05/19 03:11:39;;;;;;;9.40;4.82;;;15.60;65.30;;;;;;5036638;28;20063;-69
2023/05/19 03:14:09;;;;;;;10.43;5.10;;;15.60;65.50;;;;;;5036664;28;20022;-68
2023/05/19 03:16:35;;;;;;;8.05;4.80;;;15.60;65.30;;;;;;5036800;28;20025;-68
2023/05/19 03:19:01;;;;;;;8.27;4.68;;;15.60;65.30;;;;;;5036426;28;20030;-68
2023/05/19 03:21:27;;;;;;;8.73;5.07;;;15.60;65.30;;;;;;5036717;28;20029;-68
2023/05/19 03:23:56;;;;;;;9.50;3.95;;;15.60;65.40;;;;;;5036542;28;20037;-68
2023/05/19 03:26:21;;;;;;;8.00;4.72;;;15.50;65.30;;;;;;5036919;28;20021;-68
2023/05/19 03:28:47;;;;;;;14.68;5.68;;;15.60;65.10;;;;;;5036573;28;20104;-69
2023/05/19 03:31:13;;;;;;;9.38;5.05;;;15.60;65.20;;;;;;5036787;28;20025;-68
2023/05/19 03:33:39;;;;;;;9.68;4.95;;;15.60;65.80;;;;;;5036687;28;20032;-68
2023/05/19 03:36:06;;;;;;;8.48;5.32;;;15.50;66.10;;;;;;5036648;28;20025;-68
2023/05/19 03:38:31;;;;;;;9.32;5.35;;;15.50;66.00;;;;;;5036362;28;20097;-67
2023/05/19 03:40:57;;;;;;;7.88;4.93;;;15.50;66.70;;;;;;5035991;28;20108;-68
2023/05/19 03:43:23;;;;;;;9.73;4.65;;;15.50;66.10;;;;;;5036017;28;20037;-68
2023/05/19 03:45:49;;;;;;;11.07;5.18;;;15.40;66.00;;;;;;5035972;28;20021;-70
2023/05/19 03:48:15;;;;;;;8.25;4.60;;;15.50;65.80;;;;;;5036217;28;20119;-69
2023/05/19 03:50:43;;;;;;;9.50;4.80;;;15.50;65.80;;;;;;5035907;28;20037;-69
2023/05/19 03:53:09;;;;;;;7.78;4.30;;;15.50;65.50;;;;;;5035706;28;20040;-67
2023/05/19 03:55:36;;;;;;;8.10;4.88;;;15.50;65.40;;;;;;5035810;28;20037;-70
2023/05/19 03:58:02;;;;;;;8.63;4.47;;;15.60;65.60;;;;;;5035743;28;20013;-68
2023/05/19 04:00:29;;;;;;;8.30;4.13;;;15.50;65.40;;;;;;5035634;28;20036;-68
2023/05/19 04:02:55;;;;;;;9.77;4.60;;;15.60;65.50;;;;;;5035697;28;20439;-68
2023/05/19 04:05:20;;;;;;;7.07;4.57;;;15.60;65.60;;;;;;5035589;28;20083;-68
2023/05/19 04:07:47;;;;;;;8.43;5.05;;;15.60;65.70;;;;;;5035883;28;20117;-68
2023/05/19 04:10:13;;;;;;;8.75;4.70;;;15.60;65.70;;;;;;5035524;28;20029;-67
2023/05/19 04:12:39;;;;;;;8.15;5.13;;;15.50;65.80;;;;;;5035507;28;20080;-67
2023/05/19 04:15:05;;;;;;;9.80;4.88;;;15.50;66.50;;;;;;5035482;28;20029;-68
2023/05/19 04:17:31;;;;;;;8.25;4.72;;;15.60;66.40;;;;;;5035719;28;20040;-68
2023/05/19 04:19:57;;;;;;;7.75;4.43;;;15.60;66.40;;;;;;5035352;28;20025;-68
2023/05/19 04:22:23;;;;;;;7.55;4.18;;;15.50;66.50;;;;;;5035589;28;20059;-69
2023/05/19 04:24:50;;;;;;;6.68;4.53;;;15.50;66.20;;;;;;5035348;28;20136;-70
2023/05/19 04:27:17;;;;;;;9.45;4.90;;;15.60;66.60;;;;;;5035657;28;20036;-70
2023/05/19 04:29:44;;;;;;;6.88;4.05;;;15.50;66.30;;;;;;5035564;28;20036;-70
2023/05/19 04:32:11;;;;;;;9.25;4.50;;;15.60;66.20;;;;;;5035197;28;20033;-69
2023/05/19 04:34:43;;;;;;;7.63;4.28;;;15.60;66.00;;;;;;5035205;28;20044;-69
2023/05/19 04:37:15;;;;;;;8.53;4.20;;;15.70;66.10;;;;;;5035264;28;20030;-69
2023/05/19 04:39:43;;;;;;;8.93;4.93;;;15.70;65.90;;;;;;5034576;28;20327;-70
2023/05/19 04:42:10;;;;;;;6.93;4.22;;;15.70;66.10;;;;;;5035425;28;20032;-69
2023/05/19 04:44:38;;;;;;;8.57;4.50;;;15.70;65.90;;;;;;5035073;28;20445;-69
2023/05/19 04:47:07;;;;;;;7.25;4.63;;;15.80;65.90;;;;;;5035068;28;20446;-69
2023/05/19 04:49:41;;;;;;;9.60;4.47;;;15.80;65.70;;;;;;5035106;28;20500;-70
2023/05/19 04:52:11;;;;;;;11.45;5.47;;;15.80;65.60;;;;;;5035086;28;20433;-69
2023/05/19 04:54:38;;;;;;;9.70;5.28;;;15.80;65.80;;;;;;5038290;28;20049;-70
2023/05/19 04:57:05;;;;;;;8.75;4.50;;;15.80;66.00;;;;;;5039119;28;20112;-69
2023/05/19 04:59:31;;;;;;;9.77;5.53;;;15.80;65.70;;;;;;5039080;28;20456;-69
2023/05/19 05:01:57;;;;;;;8.63;4.95;;;15.90;65.90;;;;;;5039080;28;20426;-70
2023/05/19 05:04:23;;;;;;;8.57;4.85;;;15.90;65.70;;;;;;5038991;28;20026;-69
2023/05/19 05:06:49;;;;;;;8.82;5.13;;;15.90;65.90;;;;;;5039254;28;20022;-69
2023/05/19 05:09:16;;;;;;;7.57;4.55;;;15.90;65.60;;;;;;5038956;28;20466;-69
2023/05/19 05:11:42;;;;;;;8.48;4.55;;;15.90;66.00;;;;;;5038545;28;20060;-69
2023/05/19 05:14:09;;;;;;;10.20;5.03;;;15.90;65.60;;;;;;5038931;28;20033;-69
2023/05/19 05:16:35;;;;;;;8.25;4.32;;;15.90;65.40;;;;;;5039327;28;20083;-70
2023/05/19 05:19:01;;;;;;;8.52;4.43;;;15.90;65.30;;;;;;5039202;28;20492;-70
2023/05/19 05:21:28;;;;;;;10.32;5.25;;;16.00;65.20;;;;;;5039011;28;20014;-69
2023/05/19 05:23:55;;;;;;;8.55;4.97;;;16.00;65.30;;;;;;5038552;28;20030;-69
2023/05/19 05:26:25;;;;;;;8.25;4.35;;;16.00;65.40;;;;;;5038934;28;20049;-69
2023/05/19 05:28:51;;;;;;;7.60;4.40;;;16.00;65.10;;;;;;5038533;28;20510;-69
2023/05/19 05:31:16;;;;;;;8.57;4.45;;;16.00;64.90;;;;;;5038570;28;20129;-69
2023/05/19 05:33:43;;;;;;;9.75;4.47;;;16.10;64.70;;;;;;5038358;28;20030;-69
2023/05/19 05:36:08;;;;;;;8.52;4.78;;;16.10;65.00;;;;;;5038917;28;20025;-69
2023/05/19 05:38:35;;;;;;;7.28;4.63;;;16.10;64.50;;;;;;5037432;28;20034;-69
2023/05/19 05:41:01;;;;;;;9.95;5.18;;;16.20;64.50;;;;;;5038813;28;20075;-69
2023/05/19 05:43:28;;;;;;;8.40;4.32;;;16.20;64.50;;;;;;5038214;28;20030;-70
2023/05/19 05:45:55;;;;;;;7.20;4.25;;;16.20;64.50;;;;;;5038527;28;20017;-69
2023/05/19 05:48:21;;;;;;;9.23;4.93;;;16.30;64.30;;;;;;5038204;28;20029;-69
2023/05/19 05:50:49;;;;;;;7.95;4.95;;;16.30;64.30;;;;;;5038165;28;20104;-69
2023/05/19 05:53:19;;;;;;;8.80;4.53;;;16.30;64.30;;;;;;5038315;28;20037;-69
2023/05/19 05:55:46;;;;;;;7.80;4.50;;;16.40;64.20;;;;;;5038323;28;20029;-70
2023/05/19 05:58:13;;;;;;;8.18;4.53;;;16.40;64.30;;;;;;5037130;28;20442;-69
2023/05/19 06:00:42;;;;;;;6.70;4.18;;;16.40;64.10;;;;;;5038210;28;20117;-69
2023/05/19 06:03:09;;;;;;;7.32;4.47;;;16.40;64.00;;;;;;5038103;28;20037;-67
2023/05/19 06:05:36;;;;;;;8.43;4.68;;;16.40;63.90;;;;;;5037332;28;20375;-68
2023/05/19 06:08:02;;;;;;;7.90;5.10;;;16.50;63.80;;;;;;5038381;28;20068;-68
2023/05/19 06:10:28;;;;;;;12.70;5.43;;;16.50;63.70;;;;;;5037839;28;20025;-68
2023/05/19 06:12:55;;;;;;;14.07;5.60;;;16.50;63.80;;;;;;5038009;28;20025;-69
2023/05/19 06:15:21;;;;;;;10.65;5.50;;;16.60;63.60;;;;;;5037577;28;20390;-67
2023/05/19 06:17:47;;;;;;;11.50;5.90;;;16.70;63.60;;;;;;5037685;28;20040;-67
2023/05/19 06:20:13;;;;;;;9.02;5.13;;;16.70;63.50;;;;;;5037745;28;20029;-67
2023/05/19 06:22:39;;;;;;;9.27;5.15;;;16.90;63.30;;;;;;5037550;28;20030;-68
2023/05/19 06:25:07;;;;;;;9.88;5.07;;;16.90;63.30;;;;;;5037221;28;20470;-68
2023/05/19 06:27:34;;;;;;;9.45;4.88;;;16.90;63.30;;;;;;5037774;28;20079;-67
2023/05/19 06:30:00;;;;;;;8.50;4.97;;;17.00;63.10;;;;;;5036784;28;20041;-68
2023/05/19 06:32:26;;;;;;;8.48;4.80;;;17.00;63.00;;;;;;5037935;28;20029;-70
2023/05/19 06:34:55;;;;;;;10.02;4.63;;;17.10;62.70;;;;;;5037274;28;20362;-70
2023/05/19 06:37:22;;;;;;;9.20;5.35;;;17.10;62.40;;;;;;5037766;28;20025;-72
2023/05/19 06:39:51;;;;;;;7.78;5.18;;;17.10;62.30;;;;;;5037211;28;20435;-72
2023/05/19 06:42:21;;;;;;;7.85;4.72;;;17.20;62.30;;;;;;5037477;28;20068;-72
2023/05/19 06:44:51;;;;;;;8.48;4.57;;;17.20;62.10;;;;;;5037351;28;20456;-72
2023/05/19 06:47:18;;;;;;;11.00;5.45;;;17.30;62.00;;;;;;5037150;28;20021;-72
2023/05/19 06:49:44;;;;;;;8.57;4.80;;;17.40;61.90;;;;;;5036183;28;20045;-72
2023/05/19 06:52:10;;;;;;;9.05;4.95;;;17.40;61.40;;;;;;5036990;28;20033;-72
2023/05/19 06:54:36;;;;;;;9.20;4.90;;;17.50;61.20;;;;;;5036979;28;20025;-73
2023/05/19 06:57:03;;;;;;;11.95;5.40;;;17.60;60.40;;;;;;5036917;28;20092;-72
2023/05/19 06:59:29;;;;;;;7.20;4.53;;;17.60;60.30;;;;;;5036805;28;20025;-73
2023/05/19 07:01:55;;;;;;;10.23;5.15;;;17.60;60.00;;;;;;5037118;28;20032;-72
2023/05/19 07:04:21;;;;;;;8.45;4.75;;;17.60;59.90;;;;;;5036976;28;20038;-72
2023/05/19 07:06:49;;;;;;;10.65;5.15;;;17.60;59.70;;;;;;5036743;28;20074;-72
2023/05/19 07:09:15;;;;;;;7.03;4.18;;;17.60;59.80;;;;;;5036616;28;20029;-70
2023/05/19 07:11:40;;;;;;;8.18;5.00;;;17.70;60.00;;;;;;5036734;28;20017;-70
2023/05/19 07:14:06;;;;;;;10.20;4.45;;;17.70;59.90;;;;;;5036528;28;20096;-70
2023/05/19 07:16:32;;;;;;;10.20;4.97;;;17.70;59.90;;;;;;5035682;28;20021;-70
2023/05/19 07:18:58;;;;;;;9.65;4.32;;;17.80;60.10;;;;;;5036468;28;20021;-72
2023/05/19 07:21:24;;;;;;;8.63;5.05;;;17.90;60.10;;;;;;5036457;28;20018;-72
2023/05/19 07:23:50;;;;;;;7.63;4.10;;;17.90;60.20;;;;;;5036288;28;20048;-72
2023/05/19 07:26:16;;;;;;;10.10;4.57;;;17.90;60.30;;;;;;5036926;28;20040;-73
2023/05/19 07:28:42;;;;;;;9.40;5.15;;;17.90;60.30;;;;;;5036593;28;20037;-70
2023/05/19 07:31:08;;;;;;;7.47;4.45;;;18.00;60.00;;;;;;5036570;28;20103;-70
2023/05/19 07:33:34;;;;;;;11.18;5.13;;;18.00;60.10;;;;;;5036203;28;20026;-70
2023/05/19 07:36:00;;;;;;;8.18;4.70;;;18.00;59.40;;;;;;5036240;28;20109;-70
2023/05/19 07:38:27;;;;;;;7.30;4.60;;;18.00;59.60;;;;;;5036419;28;20029;-70
2023/05/19 07:40:53;;;;;;;8.20;4.70;;;18.00;59.40;;;;;;5035938;28;20415;-72
2023/05/19 07:43:19;;;;;;;10.07;5.07;;;18.00;59.30;;;;;;5035960;28;20063;-72
2023/05/19 07:45:45;;;;;;;8.90;4.43;;;18.00;59.30;;;;;;5036474;28;20113;-72
2023/05/19 07:48:11;;;;;;;10.10;5.10;;;18.00;59.30;;;;;;5036478;28;20083;-72
2023/05/19 07:50:37;;;;;;;8.00;4.47;;;18.00;59.20;;;;;;5036436;28;20108;-72
2023/05/19 07:53:03;;;;;;;9.23;4.57;;;18.00;59.20;;;;;;5034836;28;20466;-72
2023/05/19 07:55:29;;;;;;;8.60;4.90;;;18.10;59.30;;;;;;5035775;28;20022;-72
2023/05/19 07:57:56;;;;;;;7.50;4.78;;;18.10;59.50;;;;;;5035743;28;20025;-72
2023/05/19 08:00:22;;;;;;;7.38;4.15;;;18.00;59.20;;;;;;5035904;28;20057;-72
2023/05/19 08:02:47;;;;;;;7.63;4.20;;;18.10;59.50;;;;;;5035685;28;20383;-70
2023/05/19 08:05:13;;;;;;;7.05;3.85;;;18.10;59.40;;;;;;5035617;28;20021;-70
2023/05/19 08:07:39;;;;;;;7.45;4.10;;;18.10;59.20;;;;;;5035856;28;20066;-70
2023/05/19 08:10:06;;;;;;;10.20;4.65;;;18.10;59.20;;;;;;5035828;28;20032;-71
2023/05/19 08:12:31;;;;;;;6.88;4.20;;;18.10;59.00;;;;;;5035786;28;20033;-70
2023/05/19 08:14:57;;;;;;;7.97;4.35;;;18.10;59.00;;;;;;5035416;28;20029;-70
2023/05/19 08:17:23;;;;;;;9.45;4.03;;;18.10;59.10;;;;;;5036016;28;20111;-70
2023/05/19 08:19:49;;;;;;;6.50;3.80;;;18.20;59.20;;;;;;5035383;28;20152;-70
2023/05/19 08:22:15;;;;;;;7.57;4.10;;;18.20;58.90;;;;;;5035928;28;20025;-73
2023/05/19 08:24:42;;;;;;;8.57;4.65;;;18.20;58.50;;;;;;5035050;28;20061;-72
2023/05/19 08:27:08;;;;;;;8.00;4.32;;;18.20;58.50;;;;;;5035415;28;20037;-70
2023/05/19 08:29:33;;;;;;;10.02;4.30;;;18.20;58.70;;;;;;5035828;28;20060;-70
2023/05/19 08:32:01;;;;;;;6.10;4.10;;;18.30;58.70;;;;;;5035497;28;20350;-72
2023/05/19 08:34:27;;;;;;;8.00;4.78;;;18.30;58.80;;;;;;5035521;28;20029;-70
2023/05/19 08:36:56;;;;;;;6.90;4.07;;;18.30;58.50;;;;;;5035730;28;20025;-70
2023/05/19 08:39:25;;;;;;;8.38;4.65;;;18.40;58.80;;;;;;5034159;28;20037;-70
2023/05/19 08:41:52;;;;;;;8.18;4.47;;;18.40;58.10;;;;;;5035099;28;20175;-70
2023/05/19 08:44:19;;;;;;;7.30;4.30;;;18.40;58.40;;;;;;5034053;28;20064;-70
2023/05/19 08:46:48;;;;;;;8.02;4.10;;;18.40;58.70;;;;;;5035183;28;20029;-72
2023/05/19 08:49:21;;;;;;;8.43;4.72;;;18.40;58.80;;;;;;5051960;28;20032;-71
2023/05/19 08:51:54;;;;;;;8.90;4.80;;;18.50;58.80;;;;;;5055173;28;20025;-71
2023/05/19 08:54:29;;;;;;;9.45;4.75;;;18.50;58.90;;;;;;5054612;28;20025;-70
2023/05/19 08:56:56;;;;;;;6.53;4.28;;;18.50;58.90;;;;;;5054923;28;20449;-72
2023/05/19 08:59:22;;;;;;;6.60;4.07;;;18.50;58.80;;;;;;5055053;28;20040;-72
2023/05/19 09:01:49;;;;;;;7.78;3.80;;;18.50;58.80;;;;;;5055426;28;20377;-71
2023/05/19 09:04:15;;;;;;;9.38;4.28;;;18.60;58.90;;;;;;5054811;28;20442;-72
2023/05/19 09:06:43;;;;;;;7.97;4.10;;;18.70;58.90;;;;;;5054957;28;20040;-71
2023/05/19 09:09:09;;;;;;;7.38;4.40;;;18.70;58.70;;;;;;5055068;28;20032;-71
2023/05/19 09:11:38;;;;;;;6.97;4.10;;;18.80;58.70;;;;;;5054248;28;20027;-71
2023/05/19 09:14:04;;;;;;;7.38;3.63;;;18.90;58.40;;;;;;5053169;28;20036;-71
2023/05/19 09:16:31;;;;;;;5.97;3.83;;;18.90;58.20;;;;;;5054767;28;20021;-71
2023/05/19 09:18:57;;;;;;;7.95;3.97;;;18.90;58.00;;;;;;5053294;28;20017;-72
2023/05/19 09:21:30;;;;;;;6.45;3.72;;;18.90;57.80;;;;;;5054887;28;20033;-70
2023/05/19 09:24:02;;;;;;;5.22;3.20;;;18.90;57.60;;;;;;5055052;28;20021;-71
2023/05/19 09:26:39;;;;;;;5.32;3.00;;;19.00;57.40;;;;;;5054728;28;20028;-72
2023/05/19 09:29:12;;;;;;;5.35;2.92;;;19.00;56.30;;;;;;5054369;28;20021;-70
2023/05/19 09:31:39;;;;;;;5.63;3.03;;;19.10;56.60;;;;;;5053575;28;20116;-71
2023/05/19 09:34:11;;;;;;;6.38;3.20;;;19.10;56.80;;;;;;5053411;28;20051;-71
2023/05/19 09:36:39;;;;;;;5.60;2.83;;;19.20;56.70;;;;;;5053654;28;20362;-72
2023/05/19 09:39:13;;;;;;;4.20;2.70;;;19.30;56.40;;;;;;5055218;28;20033;-71
2023/05/19 09:41:39;;;;;;;8.63;3.28;;;19.30;55.30;;;;;;5058594;28;20029;-70
2023/05/19 09:44:06;;;;;;;3.90;2.85;;;19.20;55.50;;;;;;5058422;28;20346;-72
2023/05/19 09:46:34;;;;;;;3.92;2.80;;;19.30;55.30;;;;;;5058232;28;20113;-69
2023/05/19 09:49:08;;;;;;;5.70;2.67;;;19.30;55.00;;;;;;5058119;28;20334;-70
2023/05/19 09:51:38;;;;;;;4.72;2.95;;;19.30;55.30;;;;;;5058662;28;20021;-72
2023/05/19 09:54:04;;;;;;;6.05;3.05;;;19.40;55.10;;;;;;5058004;28;20025;-70
2023/05/19 09:56:38;;;;;;;5.63;2.80;;;19.40;55.00;;;;;;5058003;28;20394;-72
2023/05/19 09:59:06;;;;;;;4.30;2.88;;;19.50;55.10;;;;;;5057892;28;20036;-69
2023/05/19 10:01:36;;;;;;;7.80;3.38;;;19.60;55.00;;;;;;5057880;28;20102;-73
2023/05/19 10:04:03;;;;;;;7.03;3.22;;;19.70;54.80;;;;;;5057740;28;20040;-72
2023/05/19 10:06:29;;;;;;;7.28;3.40;;;19.70;54.70;;;;;;5058280;28;20025;-72
2023/05/19 10:08:57;;;;;;;6.10;3.17;;;19.70;54.30;;;;;;5057722;28;20071;-73
2023/05/19 10:11:24;;;;;;;6.03;3.10;;;19.70;54.50;;;;;;5056788;28;20024;-72
2023/05/19 10:13:51;;;;;;;4.82;3.10;;;19.80;54.60;;;;;;5057844;28;20438;-72
2023/05/19 10:16:19;;;;;;;7.30;3.40;;;19.90;54.90;;;;;;5057926;28;20056;-72
2023/05/19 10:18:45;;;;;;;6.10;3.50;;;19.90;54.80;;;;;;5057941;28;20025;-72
2023/05/19 10:21:12;;;;;;;7.00;3.50;;;20.00;54.80;;;;;;5058085;28;20039;-72
2023/05/19 10:23:38;;;;;;;6.03;3.22;;;20.10;54.80;;;;;;5057712;28;20025;-69
2023/05/19 10:26:05;;;;;;;6.75;3.65;;;20.20;54.70;;;;;;5057473;28;20136;-69
2023/05/19 10:28:36;;;;;;;5.38;2.80;;;20.30;54.30;;;;;;5057741;28;20025;-69
2023/05/19 10:31:06;;;;;;;6.50;3.85;;;20.30;54.30;;;;;;5056453;28;20060;-72
2023/05/19 10:33:52;;;;;;;6.32;3.40;;;20.30;54.00;;;;;;5057312;28;20428;-72
2023/05/19 10:36:27;;;;;;;5.38;3.25;;;20.40;54.30;;;;;;5057574;28;20108;-72
2023/05/19 10:39:15;;;;;;;5.13;3.33;;;20.40;53.90;;;;;;5057798;28;20033;-72
2023/05/19 10:41:46;;;;;;;6.82;3.60;;;20.50;53.90;;;;;;5057259;28;20128;-72
2023/05/19 10:44:48;;;;;;;5.65;3.38;;;20.50;53.30;;;;;;5057433;28;20123;-72
2023/05/19 10:47:21;;;;;;;5.25;3.20;;;20.50;53.20;;;;;;5057647;28;20025;-73
2023/05/19 10:49:47;;;;;;;7.45;3.50;;;20.50;53.70;;;;;;5057417;28;20029;-72
2023/05/19 10:52:24;;;;;;;6.82;3.60;;;20.60;53.80;;;;;;5057537;28;20029;-73
2023/05/19 10:54:53;;;;;;;5.35;3.63;;;20.70;53.70;;;;;;5057222;28;20025;-72
2023/05/19 10:57:27;;;;;;;6.22;3.10;;;20.90;53.30;;;;;;5056847;28;20074;-72
2023/05/19 10:59:55;;;;;;;6.53;3.38;;;20.90;53.00;;;;;;5056700;28;20461;-72
2023/05/19 11:02:39;;;;;;;6.30;3.83;;;20.90;53.00;;;;;;5055840;28;20028;-69
2023/05/19 11:05:15;;;;;;;8.32;3.40;;;20.90;52.80;;;;;;5056696;28;20036;-69
2023/05/19 11:07:43;;;;;;;5.95;3.28;;;21.10;52.90;;;;;;5057234;28;20025;-72
2023/05/19 11:10:09;;;;;;;7.95;3.65;;;21.10;52.90;;;;;;5039301;28;20056;-72
2023/05/19 11:12:44;;;;;;;5.10;3.70;;;21.20;52.90;;;;;;5058453;28;20047;-69
2023/05/19 11:15:14;;;;;;;6.93;3.70;;;21.30;52.80;;;;;;5058652;28;20033;-69
2023/05/19 11:17:44;;;;;;;5.75;3.47;;;21.40;52.80;;;;;;5057236;28;20028;-69
2023/05/19 11:20:28;;;;;;;5.63;2.92;;;21.50;52.80;;;;;;5056396;28;20067;-69
2023/05/19 11:23:07;;;;;;;4.57;2.70;;;21.60;52.90;;;;;;5056689;28;20441;-73
2023/05/19 11:25:47;;;;;;;5.43;3.20;;;21.60;51.90;;;;;;5056203;28;20489;-69
2023/05/19 11:28:24;;;;;;;5.22;3.30;;;21.60;51.40;;;;;;5056520;28;20055;-72
2023/05/19 11:30:53;;;;;;;5.53;3.63;;;21.50;51.90;;;;;;5056274;28;20021;-69
2023/05/19 11:33:20;;;;;;;6.78;3.92;;;21.40;51.80;;;;;;5056134;28;20032;-72
2023/05/19 11:35:48;;;;;;;4.50;3.08;;;21.30;51.80;;;;;;5056166;28;20381;-72
2023/05/19 11:38:14;;;;;;;3.55;2.70;;;21.20;52.20;;;;;;5056385;28;20094;-69
2023/05/19 11:40:43;;;;;;;5.72;3.20;;;21.20;52.50;;;;;;5055873;28;20025;-72
2023/05/19 11:43:10;;;;;;;5.38;3.10;;;21.20;52.70;;;;;;5055886;28;20033;-72
2023/05/19 11:45:36;;;;;;;5.90;2.65;;;21.40;52.80;;;;;;5055955;28;20013;-70
2023/05/19 11:48:03;;;;;;;3.58;2.60;;;21.40;52.70;;;;;;5056440;28;20029;-69
2023/05/19 11:50:30;;;;;;;4.10;2.42;;;21.50;52.20;;;;;;5055026;28;20024;-69
2023/05/19 11:52:58;;;;;;;4.25;2.53;;;21.50;52.60;;;;;;5056079;28;20033;-69
2023/05/19 11:55:24;;;;;;;3.83;2.40;;;21.60;52.40;;;;;;5056015;28;20021;-72
2023/05/19 11:57:57;;;;;;;4.93;2.58;;;21.60;52.20;;;;;;5056018;28;20039;-73
2023/05/19 12:00:24;;;;;;;2.67;2.10;;;21.50;51.90;;;;;;5054787;28;20102;-72
2023/05/19 12:02:51;;;;;;;5.32;2.20;;;21.50;52.30;;;;;;5055532;28;20031;-69
2023/05/19 12:05:21;;;;;;;3.40;2.20;;;21.50;52.50;;;;;;5055606;28;20056;-70
2023/05/19 12:07:51;;;;;;;3.00;2.05;;;21.60;52.50;;;;;;5054621;28;20021;-72
2023/05/19 12:10:22;;;;;;;3.60;1.75;;;21.60;52.50;;;;;;5055466;28;20028;-69
2023/05/19 12:12:50;;;;;;;5.07;1.80;;;21.60;52.70;;;;;;5056043;28;20119;-69
2023/05/19 12:15:20;;;;;;;2.33;1.80;;;21.50;52.60;;;;;;5055430;28;20025;-69
2023/05/19 12:18:05;;;;;;;2.58;1.58;;;21.40;52.30;;;;;;5055267;28;20040;-70
2023/05/19 12:20:34;;;;;;;1.75;1.30;;;21.40;52.60;;;;;;5054974;28;20025;-70
2023/05/19 12:23:00;;;;;;;2.97;1.30;;;21.40;53.00;;;;;;5055201;28;20040;-70
2023/05/19 12:25:28;;;;;;;1.63;1.52;;;21.40;53.10;;;;;;5055048;28;20037;-72
2023/05/19 12:28:03;;;;;;;2.47;1.65;;;21.50;52.70;;;;;;5055267;28;20021;-70
2023/05/19 12:30:30;;;;;;;1.88;1.50;;;21.40;52.50;;;;;;5055213;28;20029;-72
2023/05/19 12:32:56;;;;;;;3.75;1.63;;;21.40;52.70;;;;;;5055118;28;20393;-72
2023/05/19 12:35:42;;;;;;;2.42;1.60;;;21.40;52.70;;;;;;5055068;28;20035;-72
2023/05/19 12:38:08;;;;;;;5.38;1.27;;;21.40;52.30;;;;;;5055701;28;20061;-72
2023/05/19 12:40:34;;;;;;;1.38;0.90;;;21.40;52.80;;;;;;5055238;28;20049;-69
2023/05/19 12:43:00;;;;;;;0.98;0.88;;;21.40;52.30;;;;;;5055333;28;20036;-72
2023/05/19 12:45:27;;;;;;;1.02;0.98;;;21.30;52.10;;;;;;5054953;28;20095;-69
2023/05/19 12:47:53;;;;;;;1.85;1.00;;;21.40;52.30;;;;;;5055307;28;20100;-69
2023/05/19 12:50:19;;;;;;;1.02;0.90;;;21.30;52.30;;;;;;5054981;28;20076;-70